Time;durP1;ratioP1;P1;durP2;ratioP2;P2;SDS_P1;SDS_P2;PMS_P1;PMS_P2;Temp;Humidity;BMP_temperature;BMP_pressure;BME280_temperature;BME280_humidity;BME280_pressure;Samples;Min_cycle;Max_cycle;Signal;HPM_P1;HPM_P2
2022/01/20 00:00:22;;;;;;;9.35;5.20;;;;;;;-3.61;90.46;61639.22;6077945;23;20196;-75
2022/01/20 00:02:56;;;;;;;5.60;4.75;;;;;;;-3.59;90.35;61640.75;6078472;23;20239;-75
2022/01/20 00:05:39;;;;;;;10.30;6.68;;;;;;;-3.57;90.46;61642.78;6077627;23;20208;-75
2022/01/20 00:08:17;;;;;;;9.95;5.05;;;;;;;-3.66;90.67;61628.63;6078114;23;20200;-76
2022/01/20 00:27:22;;;;;;;11.25;5.05;;;;;;;-3.64;91.74;61628.69;6027505;23;20177;-76
2022/01/20 00:30:16;;;;;;;10.60;5.05;;;;;;;-3.62;91.93;61638.19;6080632;23;20197;-77
2022/01/20 00:32:51;;;;;;;11.30;4.90;;;;;;;-3.67;92.13;61627.59;6079751;23;20454;-76
2022/01/20 00:35:23;;;;;;;6.80;4.40;;;;;;;-3.69;92.07;61636.03;6080141;23;20203;-76
2022/01/20 00:37:49;;;;;;;5.28;4.68;;;;;;;-3.74;92.01;61625.44;6079351;23;20172;-76
2022/01/20 00:40:18;;;;;;;6.95;5.07;;;;;;;-3.72;92.26;61625.00;6080245;23;20211;-75
2022/01/20 00:42:45;;;;;;;12.60;5.55;;;;;;;-3.70;91.70;61622.59;6080383;23;20173;-75
2022/01/20 00:45:12;;;;;;;9.88;5.72;;;;;;;-3.74;91.75;61623.47;6079262;23;20211;-75
2022/01/20 00:47:40;;;;;;;10.20;5.25;;;;;;;-3.78;91.91;61621.84;6078921;23;20169;-76
2022/01/20 00:50:10;;;;;;;11.40;6.80;;;;;;;-3.83;92.05;61614.28;6079668;23;20679;-75
2022/01/20 00:52:37;;;;;;;15.45;8.95;;;;;;;-3.83;92.07;61606.81;6080519;23;20173;-75
2022/01/20 00:55:05;;;;;;;14.60;7.63;;;;;;;-3.81;91.98;61613.81;6078902;23;20211;-76
2022/01/20 00:57:34;;;;;;;15.07;8.25;;;;;;;-3.82;91.75;61614.78;6080066;23;20366;-76
2022/01/20 01:00:01;;;;;;;13.63;6.22;;;;;;;-3.77;91.43;61617.91;6079993;23;20196;-76
2022/01/20 01:02:28;;;;;;;10.63;5.70;;;;;;;-3.81;91.34;61618.81;6081440;23;20165;-76
2022/01/20 01:04:55;;;;;;;6.50;4.30;;;;;;;-3.73;90.13;61621.50;6079862;23;20259;-76
2022/01/20 01:10:09;;;;;;;6.53;3.95;;;;;;;-3.90;87.56;61609.59;6080247;23;20236;-75
2022/01/20 01:12:44;;;;;;;8.40;4.20;;;;;;;-3.91;87.90;61600.63;6078884;23;20177;-76
2022/01/20 01:15:17;;;;;;;7.47;3.67;;;;;;;-3.96;89.12;61602.97;6078880;23;20196;-76
2022/01/20 01:20:31;;;;;;;9.80;4.57;;;;;;;-3.99;91.26;61595.47;6080335;23;20195;-76
2022/01/20 01:22:58;;;;;;;13.98;4.97;;;;;;;-3.99;91.78;61595.47;6080018;23;20220;-76
2022/01/20 01:25:25;;;;;;;11.60;5.32;;;;;;;-4.01;92.88;61587.94;6080517;23;20260;-76
2022/01/20 01:27:54;;;;;;;11.05;5.05;;;;;;;-4.02;93.69;61591.91;6081339;23;20187;-76
2022/01/20 01:30:42;;;;;;;5.63;4.68;;;;;;;-4.07;94.02;61592.25;6079889;23;20225;-75
2022/01/20 01:33:09;;;;;;;8.07;5.70;;;;;;;-3.98;94.65;61601.44;6078823;23;20176;-75
2022/01/20 01:35:39;;;;;;;7.43;5.55;;;;;;;-3.98;94.93;61596.47;6079766;23;20257;-75
2022/01/20 01:38:35;;;;;;;17.10;6.55;;;;;;;-3.98;95.21;61600.94;6079615;23;20180;-76
2022/01/20 01:41:09;;;;;;;12.40;6.40;;;;;;;-3.98;95.26;61600.94;6078582;23;20547;-75
2022/01/20 01:43:40;;;;;;;12.75;5.90;;;;;;;-4.01;94.89;61590.41;6079412;23;20165;-76
2022/01/20 01:46:07;;;;;;;13.00;6.40;;;;;;;-4.00;95.37;61594.44;6079253;23;20248;-76
2022/01/20 01:48:34;;;;;;;11.48;6.60;;;;;;;-4.00;95.26;61593.91;6079432;23;20557;-76
2022/01/20 01:51:01;;;;;;;13.68;6.05;;;;;;;-4.16;95.71;61583.06;6079287;23;20520;-76
2022/01/20 01:53:28;;;;;;;8.30;5.07;;;;;;;-4.09;96.17;61587.22;6080831;23;20180;-75
2022/01/20 01:55:56;;;;;;;12.30;5.78;;;;;;;-4.15;96.06;61576.66;6080740;23;20497;-76
2022/01/20 01:58:23;;;;;;;10.38;5.85;;;;;;;-4.15;96.38;61576.13;6079559;23;20565;-76
2022/01/20 02:00:52;;;;;;;8.15;5.53;;;;;;;-4.19;96.50;61572.56;6078331;23;20569;-75
2022/01/20 02:03:19;;;;;;;9.13;6.22;;;;;;;-4.14;96.20;61587.59;6079063;23;20193;-76
2022/01/20 02:06:09;;;;;;;13.00;5.25;;;;;;;-4.12;96.43;61586.63;6079119;23;20219;-76
2022/01/20 02:08:42;;;;;;;8.15;5.13;;;;;;;-4.20;96.52;61571.53;6076925;23;20232;-75
2022/01/20 02:19:26;;;;;;;13.10;5.60;;;;;;;-4.32;97.05;61556.31;6078840;23;20236;-75
2022/01/20 02:22:01;;;;;;;8.68;4.45;;;;;;;-4.31;96.68;61570.25;6078839;23;20168;-76
2022/01/20 02:24:29;;;;;;;11.73;5.75;;;;;;;-4.28;96.24;61565.34;6078773;23;20243;-75
2022/01/20 02:26:56;;;;;;;7.55;3.80;;;;;;;-4.23;95.29;61575.44;6077377;23;20204;-76
2022/01/20 02:29:23;;;;;;;7.43;3.72;;;;;;;-4.28;94.60;61563.38;6078458;23;20413;-76
2022/01/20 02:31:54;;;;;;;5.57;3.88;;;;;;;-4.28;94.20;61567.84;6078227;23;20413;-76
2022/01/20 02:34:23;;;;;;;8.30;4.30;;;;;;;-4.26;93.97;61570.38;6077770;23;20200;-77
2022/01/20 02:36:50;;;;;;;6.93;4.20;;;;;;;-4.30;94.07;61566.31;6077692;23;20173;-76
2022/01/20 02:39:44;;;;;;;8.15;4.78;;;;;;;-4.24;94.30;61574.41;6078561;23;20203;-76
2022/01/20 02:45:03;;;;;;;7.75;4.68;;;;;;;-4.38;94.95;61550.19;6077658;23;20252;-76
2022/01/20 02:47:33;;;;;;;8.57;4.65;;;;;;;-4.31;95.22;61567.75;6078094;23;20204;-76
2022/01/20 02:50:01;;;;;;;8.73;4.70;;;;;;;-4.52;95.78;61546.34;6078263;23;20203;-76
2022/01/20 02:52:28;;;;;;;7.18;4.88;;;;;;;-4.46;96.20;61539.53;6077713;23;20200;-75
2022/01/20 02:54:57;;;;;;;9.00;5.13;;;;;;;-4.39;96.29;61562.09;6077671;23;20384;-76
2022/01/20 02:57:24;;;;;;;12.02;4.88;;;;;;;-4.37;96.10;61561.13;6078328;23;20409;-76
2022/01/20 02:59:52;;;;;;;8.88;4.57;;;;;;;-4.34;96.34;61564.19;6078298;23;20200;-75
2022/01/20 03:02:18;;;;;;;7.50;4.43;;;;;;;-4.40;96.38;61558.56;6077299;23;20177;-76
2022/01/20 03:04:45;;;;;;;11.50;4.65;;;;;;;-4.36;96.22;61554.69;6077497;23;20547;-77
2022/01/20 03:07:12;;;;;;;11.73;5.60;;;;;;;-4.37;96.22;61561.13;6077754;23;20204;-76
2022/01/20 03:09:39;;;;;;;8.80;5.43;;;;;;;-4.40;96.54;61553.59;6078715;23;20211;-76
2022/01/20 03:12:08;;;;;;;9.07;5.82;;;;;;;-4.33;96.54;61562.75;6077914;23;20176;-76
2022/01/20 03:14:35;;;;;;;6.20;5.05;;;;;;;-4.27;96.16;61569.38;6078365;23;20212;-76
2022/01/20 03:17:03;;;;;;;12.13;5.28;;;;;;;-4.46;95.87;61545.00;6077963;23;20240;-75
2022/01/20 03:19:30;;;;;;;9.52;5.03;;;;;;;-4.31;95.61;61557.31;6077725;23;20197;-76
2022/01/20 03:21:57;;;;;;;7.15;4.20;;;;;;;-4.31;95.58;61562.28;6076899;23;20274;-75
2022/01/20 03:24:24;;;;;;;10.80;5.80;;;;;;;-4.38;95.64;61563.09;6077347;23;20425;-75
2022/01/20 03:26:51;;;;;;;8.77;5.00;;;;;;;-4.35;95.95;61565.66;6077608;23;20205;-76
2022/01/20 03:29:19;;;;;;;7.30;5.43;;;;;;;-4.34;96.07;61559.75;6077672;23;20196;-76
2022/01/20 03:31:46;;;;;;;10.13;5.78;;;;;;;-4.57;96.16;61538.25;6077297;23;20173;-75
2022/01/20 03:34:13;;;;;;;10.00;5.28;;;;;;;-4.41;96.58;61552.59;6077648;23;20197;-76
2022/01/20 03:36:40;;;;;;;10.18;5.65;;;;;;;-4.42;96.84;61558.53;6077593;23;20172;-76
2022/01/20 03:39:07;;;;;;;8.02;6.15;;;;;;;-4.49;97.57;61541.97;6076123;23;20173;-75
2022/01/20 03:41:34;;;;;;;9.80;6.10;;;;;;;-4.46;97.93;61545.00;6077551;23;20196;-75
2022/01/20 03:44:01;;;;;;;14.77;6.88;;;;;;;-4.46;97.87;61545.00;6077681;23;20375;-76
2022/01/20 03:46:29;;;;;;;11.77;5.90;;;;;;;-4.49;98.29;61543.94;6077138;23;20211;-75
2022/01/20 03:49:07;;;;;;;14.68;6.72;;;;;;;-4.44;98.24;61544.56;6077537;23;20184;-75
2022/01/20 03:51:34;;;;;;;15.18;6.05;;;;;;;-4.46;98.37;61546.97;6077761;23;20172;-75
2022/01/20 03:54:00;;;;;;;8.77;6.38;;;;;;;-4.43;97.97;61543.09;6077485;23;20337;-75
2022/01/20 03:56:27;;;;;;;12.25;7.28;;;;;;;-4.40;98.08;61548.66;6076494;23;20173;-75
2022/01/20 03:58:54;;;;;;;11.98;6.45;;;;;;;-4.46;98.02;61549.47;6076335;23;20173;-75
2022/01/20 04:01:22;;;;;;;11.63;6.60;;;;;;;-4.49;97.93;61546.94;6077752;23;20169;-76
2022/01/20 04:03:50;;;;;;;12.77;7.05;;;;;;;-4.58;97.89;61540.22;6079583;23;20235;-75
2022/01/20 04:06:17;;;;;;;15.23;6.97;;;;;;;-4.65;98.60;61532.56;6077345;23;20211;-76
2022/01/20 04:08:46;;;;;;;12.38;5.78;;;;;;;-4.63;98.82;61530.16;6078238;23;20169;-75
2022/01/20 04:11:18;;;;;;;13.77;6.03;;;;;;;-4.60;98.59;61533.22;6080170;23;20216;-75
2022/01/20 04:13:47;;;;;;;8.77;5.20;;;;;;;-4.61;98.03;61532.19;6078952;23;20345;-75
2022/01/20 04:16:18;;;;;;;9.90;5.88;;;;;;;-4.71;98.14;61526.94;6079380;23;20231;-76
2022/01/20 04:18:52;;;;;;;7.50;5.55;;;;;;;-4.74;98.17;61513.97;6078305;23;20416;-75
2022/01/20 04:21:21;;;;;;;13.27;5.90;;;;;;;-4.77;98.21;61520.84;6078062;23;20266;-75
2022/01/20 04:23:48;;;;;;;14.43;5.70;;;;;;;-4.81;98.70;61512.31;6077036;23;20173;-76
2022/01/20 04:26:16;;;;;;;15.25;5.55;;;;;;;-4.79;98.96;61509.38;6079513;23;20261;-75
2022/01/20 04:28:43;;;;;;;9.35;4.43;;;;;;;-4.85;98.36;61512.69;6078977;23;20402;-75
2022/01/20 04:31:10;;;;;;;5.32;3.72;;;;;;;-4.86;98.07;61509.19;6078722;23;20204;-76
2022/01/20 04:33:37;;;;;;;45.50;19.25;;;;;;;-4.95;97.49;61500.00;6078413;23;20169;-76
2022/01/20 04:36:05;;;;;;;15.57;7.13;;;;;;;-4.85;97.08;61508.22;6079446;23;20201;-75
2022/01/20 04:38:33;;;;;;;10.07;5.57;;;;;;;-4.85;97.01;61503.25;6079361;23;20177;-75
2022/01/20 04:41:00;;;;;;;11.35;7.22;;;;;;;-4.96;97.34;61499.50;6078949;23;20545;-75
2022/01/20 04:43:27;;;;;;;17.40;7.18;;;;;;;-4.88;97.53;61509.63;6079717;23;20421;-76
2022/01/20 04:46:01;;;;;;;14.98;8.25;;;;;;;-4.97;97.65;61495.50;6078401;23;20260;-76
2022/01/20 04:48:42;;;;;;;15.88;7.28;;;;;;;-4.97;98.09;61498.47;6078923;23;20165;-75
2022/01/20 04:57:14;;;;;;;11.13;7.82;;;;;;;-4.78;98.31;61519.84;6078809;23;20186;-74
2022/01/20 04:59:42;;;;;;;16.40;7.13;;;;;;;-4.72;96.71;61518.50;6078579;23;20197;-75
2022/01/20 05:02:08;;;;;;;12.35;6.50;;;;;;;-4.78;96.74;61520.31;6079340;23;20183;-75
2022/01/20 05:04:36;;;;;;;15.13;6.97;;;;;;;-4.80;96.52;61513.31;6079404;23;20237;-76
2022/01/20 05:07:04;;;;;;;23.63;10.40;;;;;;;-4.72;96.50;61521.50;6078191;23;20204;-75
2022/01/20 05:09:32;;;;;;;16.45;7.72;;;;;;;-4.78;96.64;61510.41;6078559;23;20248;-75
2022/01/20 05:12:02;;;;;;;12.45;6.95;;;;;;;-4.71;95.86;61517.03;6079546;23;20172;-76
2022/01/20 05:14:30;;;;;;;11.30;7.50;;;;;;;-4.77;95.80;61518.88;6079434;23;20201;-75
2022/01/20 05:16:57;;;;;;;12.57;6.95;;;;;;;-4.76;95.80;61521.84;6079832;23;20537;-75
2022/01/20 05:19:25;;;;;;;12.90;7.32;;;;;;;-4.73;95.49;61515.50;6079692;23;20259;-75
2022/01/20 05:21:52;;;;;;;16.15;6.75;;;;;;;-4.76;96.01;61517.41;6078900;23;20179;-75
2022/01/20 05:24:20;;;;;;;12.48;6.15;;;;;;;-4.75;95.86;61520.91;6078241;23;20248;-76
2022/01/20 05:26:50;;;;;;;8.32;6.03;;;;;;;-4.74;95.84;61524.41;6078646;23;20193;-76
2022/01/20 05:29:17;;;;;;;12.02;6.80;;;;;;;-4.75;95.80;61515.44;6078568;23;20497;-75
2022/01/20 05:31:44;;;;;;;11.88;6.30;;;;;;;-4.68;95.90;61522.06;6078680;23;20493;-75
2022/01/20 05:34:10;;;;;;;8.45;5.50;;;;;;;-4.72;95.82;61521.50;6078227;23;20193;-74
2022/01/20 05:36:38;;;;;;;12.90;7.47;;;;;;;-4.73;96.01;61525.44;6078540;23;20188;-76
2022/01/20 05:39:05;;;;;;;13.45;7.68;;;;;;;-4.76;96.02;61519.38;6078959;23;20184;-75
2022/01/20 05:41:32;;;;;;;11.70;6.88;;;;;;;-4.81;96.29;61509.31;6078948;23;20173;-75
2022/01/20 05:44:00;;;;;;;11.75;6.57;;;;;;;-4.77;96.74;61515.88;6079915;23;20460;-74
2022/01/20 05:46:34;;;;;;;21.50;8.60;;;;;;;-4.81;97.36;61514.28;6080382;23;20173;-74
2022/01/20 05:49:08;;;;;;;15.90;8.23;;;;;;;-4.88;97.25;61507.66;6079139;23;20176;-75
2022/01/20 05:51:35;;;;;;;16.80;7.90;;;;;;;-4.80;97.91;61513.31;6079388;23;20157;-75
2022/01/20 05:54:03;;;;;;;21.85;9.15;;;;;;;-4.80;98.24;61512.81;6078734;23;20377;-76
2022/01/20 05:56:29;;;;;;;16.35;8.57;;;;;;;-4.78;98.23;61517.34;6078543;23;20178;-76
2022/01/20 05:58:56;;;;;;;19.20;9.07;;;;;;;-4.90;98.80;61502.63;6078375;23;20177;-76
2022/01/20 06:01:25;;;;;;;21.15;8.68;;;;;;;-4.79;99.10;61518.81;6077349;23;20169;-75
2022/01/20 06:03:51;;;;;;;17.92;9.40;;;;;;;-4.79;98.99;61516.31;6078048;23;20228;-75
2022/01/20 06:06:18;;;;;;;15.23;8.25;;;;;;;-4.88;99.45;61512.63;6080959;23;20169;-76
2022/01/20 06:08:45;;;;;;;21.42;7.82;;;;;;;-4.80;99.78;61512.81;6083096;23;20187;-76
2022/01/20 06:11:12;;;;;;;25.17;10.38;;;;;;;-4.91;100.00;61501.59;6078167;23;20404;-73
2022/01/20 06:13:39;;;;;;;17.35;9.07;;;;;;;-4.88;100.00;61502.16;6077302;23;20177;-74
2022/01/20 06:16:06;;;;;;;15.13;8.25;;;;;;;-4.87;100.00;61503.69;6078104;23;20197;-73
2022/01/20 06:18:35;;;;;;;18.38;8.82;;;;;;;-4.88;100.00;61512.63;6078567;23;20165;-74
2022/01/20 06:21:01;;;;;;;16.38;8.38;;;;;;;-4.83;100.00;61507.78;6077760;23;20237;-74
2022/01/20 06:23:28;;;;;;;14.88;8.23;;;;;;;-4.77;100.00;61521.34;6078875;23;20165;-73
2022/01/20 06:25:55;;;;;;;18.08;8.32;;;;;;;-4.73;100.00;61517.47;6078053;23;20204;-74
2022/01/20 06:28:23;;;;;;;16.90;8.50;;;;;;;-4.72;100.00;61519.00;6078137;23;20232;-74
2022/01/20 06:30:50;;;;;;;16.60;9.30;;;;;;;-4.68;100.00;61530.03;6078099;23;20240;-76
2022/01/20 06:33:17;;;;;;;15.35;8.00;;;;;;;-4.60;100.00;61530.72;6078718;23;20221;-76
2022/01/20 06:35:45;;;;;;;25.13;10.43;;;;;;;-4.45;100.00;61548.00;6079014;23;20197;-76
2022/01/20 06:38:12;;;;;;;17.52;9.07;;;;;;;-4.47;100.00;61543.50;6078433;23;20192;-76
2022/01/20 06:40:39;;;;;;;17.77;9.13;;;;;;;-4.46;100.00;61554.44;6075834;23;20248;-76
2022/01/20 06:43:06;;;;;;;20.40;9.45;;;;;;;-4.33;100.00;61557.78;6077659;23;20521;-76
2022/01/20 06:45:35;;;;;;;17.98;9.30;;;;;;;-4.31;100.00;61562.78;6078257;23;20193;-75
2022/01/20 06:48:02;;;;;;;13.40;8.45;;;;;;;-4.25;99.91;61563.44;6077614;23;20239;-76
2022/01/20 06:50:29;;;;;;;15.52;9.27;;;;;;;-4.06;99.03;61585.31;6078744;23;20196;-75
2022/01/20 06:52:57;;;;;;;20.23;9.45;;;;;;;-3.96;98.32;61600.50;6078796;23;20177;-76
2022/01/20 06:55:24;;;;;;;22.95;10.45;;;;;;;-3.96;97.42;61603.50;6079114;23;20193;-76
2022/01/20 06:57:52;;;;;;;17.85;8.25;;;;;;;-3.79;96.71;61612.88;6079409;23;20224;-77
2022/01/20 07:00:20;;;;;;;15.40;8.60;;;;;;;-3.87;96.04;61604.72;6079864;23;20260;-76
2022/01/20 07:02:48;;;;;;;18.15;10.50;;;;;;;-3.59;96.04;61643.25;6080201;23;20181;-76
2022/01/20 07:05:17;;;;;;;11.77;8.68;;;;;;;-3.27;94.52;61668.47;6080787;23;20256;-73
2022/01/20 07:07:45;;;;;;;19.00;10.18;;;;;;;-2.48;91.35;61741.72;6080763;23;20477;-75
2022/01/20 07:10:17;;;;;;;15.52;9.15;;;;;;;-2.16;88.53;61778.91;6087239;23;20218;-74
2022/01/20 07:12:44;;;;;;;14.68;8.57;;;;;;;-1.86;85.82;61812.06;6080943;23;20172;-76
2022/01/20 07:15:11;;;;;;;20.35;9.73;;;;;;;-1.78;83.48;61819.75;6080237;23;20220;-75
2022/01/20 07:17:38;;;;;;;16.95;9.38;;;;;;;-1.62;81.90;61836.09;6080923;23;20180;-74
2022/01/20 07:20:06;;;;;;;17.02;8.25;;;;;;;-1.65;80.95;61833.03;6080510;23;20193;-75
2022/01/20 07:22:37;;;;;;;14.93;8.98;;;;;;;-1.59;82.07;61839.19;6082003;23;20216;-75
2022/01/20 07:25:04;;;;;;;15.02;8.00;;;;;;;-1.42;80.44;61857.09;6081802;23;20204;-75
2022/01/20 07:27:33;;;;;;;20.90;9.48;;;;;;;-1.10;80.37;61888.81;6079218;23;20212;-76
2022/01/20 07:30:00;;;;;;;19.83;9.48;;;;;;;-0.75;78.17;61927.66;6079065;23;20192;-76
2022/01/20 07:32:27;;;;;;;13.68;7.70;;;;;;;-0.57;71.85;61945.59;6084573;23;20173;-76
2022/01/20 07:34:53;;;;;;;14.93;8.48;;;;;;;-0.60;71.45;61940.00;6080933;23;20196;-77
2022/01/20 07:37:21;;;;;;;17.60;8.27;;;;;;;-0.88;71.51;61911.84;6086504;23;20417;-76
2022/01/20 07:39:48;;;;;;;17.00;8.05;;;;;;;-0.87;72.24;61912.34;6081905;23;20253;-76
2022/01/20 07:42:15;;;;;;;18.40;8.30;;;;;;;-0.86;71.96;61908.41;6079090;23;20408;-77
2022/01/20 07:44:43;;;;;;;17.30;8.60;;;;;;;-0.90;71.69;61909.28;6079452;23;20509;-77
2022/01/20 07:47:10;;;;;;;17.63;9.10;;;;;;;-1.22;72.69;61877.56;6081652;23;20201;-77
2022/01/20 07:49:37;;;;;;;18.90;8.95;;;;;;;-1.31;73.74;61867.81;6079088;23;20539;-76
2022/01/20 07:52:05;;;;;;;17.65;9.10;;;;;;;-1.36;76.30;61860.72;6078801;23;20168;-77
2022/01/20 07:54:32;;;;;;;19.08;9.07;;;;;;;-1.43;75.66;61853.56;6078521;23;20223;-76
2022/01/20 07:56:58;;;;;;;14.88;7.78;;;;;;;-1.51;76.24;61842.88;6079324;23;20176;-77
2022/01/20 07:59:26;;;;;;;11.65;7.47;;;;;;;-1.45;76.47;61854.00;6078696;23;20237;-76
2022/01/20 08:01:54;;;;;;;14.13;7.70;;;;;;;-1.34;76.16;61865.28;6079034;23;20389;-77
2022/01/20 08:04:21;;;;;;;14.68;7.80;;;;;;;-1.33;74.75;61866.28;6081937;23;20536;-77
2022/01/20 08:06:48;;;;;;;14.38;7.60;;;;;;;-1.39;74.07;61860.16;6077738;23;20220;-76
2022/01/20 08:09:14;;;;;;;12.27;7.53;;;;;;;-1.20;75.10;61874.63;6077973;23;20556;-76
2022/01/20 08:11:42;;;;;;;10.15;6.78;;;;;;;-1.18;73.66;61878.63;6078335;23;20215;-76
2022/01/20 08:14:09;;;;;;;17.15;6.70;;;;;;;-1.23;72.88;61871.53;6078439;23;20519;-76
2022/01/20 08:16:36;;;;;;;12.07;7.22;;;;;;;-0.99;73.17;61897.56;6078602;23;20240;-76
2022/01/20 08:19:04;;;;;;;15.88;6.95;;;;;;;-0.93;71.88;61909.22;6078292;23;20184;-76
2022/01/20 08:21:31;;;;;;;12.90;6.93;;;;;;;-0.82;71.81;61918.00;6078713;23;20197;-76
2022/01/20 08:23:58;;;;;;;12.43;7.20;;;;;;;-0.95;71.34;61899.19;6078184;23;20228;-75
2022/01/20 08:26:25;;;;;;;14.15;6.72;;;;;;;-0.87;70.90;61912.88;6080836;23;20180;-76
2022/01/20 08:28:52;;;;;;;16.17;7.72;;;;;;;-0.77;71.19;61920.09;6078562;23;20205;-77
2022/01/20 08:31:19;;;;;;;11.60;6.80;;;;;;;-0.70;70.59;61929.75;6079118;23;20331;-75
2022/01/20 08:33:46;;;;;;;13.70;8.00;;;;;;;-0.67;70.40;61933.34;6077459;23;20402;-75
2022/01/20 08:36:14;;;;;;;18.63;8.27;;;;;;;-0.47;69.43;61950.81;6078085;23;20377;-75
2022/01/20 08:38:41;;;;;;;11.40;7.82;;;;;;;-0.36;68.81;61962.59;6079356;23;20374;-76
2022/01/20 08:41:08;;;;;;;19.80;7.72;;;;;;;-0.36;66.69;61964.59;6081039;23;20200;-75
2022/01/20 08:43:38;;;;;;;15.88;8.27;;;;;;;-0.29;67.00;61964.78;6079246;23;20185;-75
2022/01/20 08:46:07;;;;;;;12.60;6.78;;;;;;;-0.38;65.41;61965.06;6080387;23;20199;-76
2022/01/20 08:48:35;;;;;;;15.75;8.48;;;;;;;-0.25;65.67;61973.34;6080704;23;20221;-77
2022/01/20 08:51:02;;;;;;;17.30;7.63;;;;;;;-0.19;65.21;61977.50;6081938;23;20200;-75
2022/01/20 08:53:31;;;;;;;18.15;8.88;;;;;;;-0.05;65.92;61998.84;6082127;23;20173;-76
2022/01/20 08:55:58;;;;;;;12.45;7.22;;;;;;;0.12;64.86;62015.75;6082861;23;20359;-76
2022/01/20 08:58:25;;;;;;;14.77;8.15;;;;;;;0.16;63.84;62017.34;6080558;23;20189;-77
2022/01/20 09:00:52;;;;;;;22.88;8.75;;;;;;;0.32;63.41;62031.78;6080157;23;20196;-78
2022/01/20 09:03:22;;;;;;;16.27;7.53;;;;;;;0.21;63.20;62023.00;6082551;23;20173;-76
2022/01/20 09:05:48;;;;;;;15.30;8.32;;;;;;;0.14;63.45;62015.31;6080700;23;20264;-76
2022/01/20 09:08:15;;;;;;;10.40;7.32;;;;;;;0.36;63.69;62032.84;6080973;23;20244;-77
2022/01/20 09:10:51;;;;;;;16.33;7.65;;;;;;;0.37;62.66;62036.38;6081479;23;20230;-77
2022/01/20 09:16:03;;;;;;;15.65;8.55;;;;;;;0.91;62.50;62094.78;6084085;23;20223;-77
2022/01/20 09:18:31;;;;;;;10.65;7.72;;;;;;;1.00;60.50;62101.00;6082436;23;20354;-77
2022/01/20 09:20:57;;;;;;;20.90;8.82;;;;;;;0.94;58.40;62097.34;6081049;23;20201;-77
2022/01/20 09:23:24;;;;;;;14.43;7.80;;;;;;;0.98;57.27;62101.94;6080525;23;20489;-77
2022/01/20 09:25:53;;;;;;;14.18;7.57;;;;;;;0.88;56.48;62088.69;6079824;23;20214;-76
2022/01/20 09:28:20;;;;;;;11.63;7.07;;;;;;;0.90;56.33;62098.75;6080358;23;20204;-76
2022/01/20 09:30:48;;;;;;;19.30;8.77;;;;;;;0.85;56.56;62086.09;6079355;23;20244;-76
2022/01/20 09:33:24;;;;;;;16.40;8.50;;;;;;;0.99;56.87;62099.94;6081489;23;20177;-75
2022/01/20 09:35:51;;;;;;;13.80;7.43;;;;;;;1.20;56.59;62124.00;6085104;23;20203;-76
2022/01/20 09:38:18;;;;;;;14.57;8.35;;;;;;;1.26;56.12;62124.63;6084280;23;20172;-77
2022/01/20 09:40:45;;;;;;;20.55;8.05;;;;;;;1.32;55.52;62133.81;6082676;23;20208;-77
2022/01/20 09:43:15;;;;;;;17.70;8.15;;;;;;;1.56;55.62;62160.94;6082458;23;20199;-76
2022/01/20 09:45:42;;;;;;;15.60;7.63;;;;;;;1.67;54.92;62174.22;6082732;23;20576;-76
2022/01/20 09:48:11;;;;;;;17.40;7.85;;;;;;;1.86;54.29;62191.75;6083490;23;20204;-75
2022/01/20 09:50:38;;;;;;;18.52;9.15;;;;;;;2.02;53.86;62205.66;6082016;23;20240;-74
2022/01/20 09:53:06;;;;;;;15.43;8.18;;;;;;;2.22;53.32;62225.69;6080404;23;20177;-74
2022/01/20 09:55:49;;;;;;;16.10;8.15;;;;;;;2.28;53.28;62234.34;6082667;23;20208;-75
2022/01/20 09:58:18;;;;;;;18.67;9.20;;;;;;;2.40;52.26;62248.69;6088716;23;20183;-76
2022/01/20 10:00:46;;;;;;;19.35;8.77;;;;;;;2.49;53.11;62253.41;6084650;23;20204;-77
2022/01/20 10:03:15;;;;;;;21.67;10.38;;;;;;;2.80;51.99;62290.28;6080152;23;20173;-76
2022/01/20 10:05:45;;;;;;;27.20;9.35;;;;;;;2.97;51.28;62305.25;6080101;23;20192;-76
2022/01/20 10:08:14;;;;;;;20.67;10.68;;;;;;;2.73;50.65;62280.06;6079888;23;20204;-76
2022/01/20 10:10:44;;;;;;;16.10;9.65;;;;;;;2.66;51.70;62272.88;6079451;23;20369;-75
2022/01/20 10:13:12;;;;;;;22.60;10.40;;;;;;;2.92;51.21;62297.06;6079713;23;20169;-75
2022/01/20 10:15:41;;;;;;;24.95;10.70;;;;;;;3.09;50.60;62314.56;6083838;23;20232;-76
2022/01/20 10:18:10;;;;;;;19.75;8.70;;;;;;;3.09;50.03;62317.06;6080392;23;20172;-77
2022/01/20 10:20:38;;;;;;;27.77;9.07;;;;;;;2.99;50.25;62304.25;6079419;23;20241;-77
2022/01/20 10:23:05;;;;;;;30.15;9.10;;;;;;;3.05;50.55;62310.97;6086071;23;20173;-75
2022/01/20 10:25:35;;;;;;;21.38;8.18;;;;;;;3.32;49.92;62340.69;6079182;23;20386;-76
2022/01/20 10:28:27;;;;;;;14.35;8.13;;;;;;;3.23;50.37;62333.97;6078882;23;20380;-76
2022/01/20 10:30:57;;;;;;;17.42;8.10;;;;;;;3.32;50.01;62343.22;6079837;23;20192;-79
2022/01/20 10:33:24;;;;;;;17.15;9.35;;;;;;;3.31;50.37;62340.19;6079159;23;20173;-77
2022/01/20 10:35:52;;;;;;;18.60;8.57;;;;;;;3.44;50.07;62350.53;6078855;23;20192;-77
2022/01/20 10:38:20;;;;;;;17.60;8.30;;;;;;;3.61;49.90;62370.03;6080182;23;20181;-77
2022/01/20 10:40:50;;;;;;;23.92;9.15;;;;;;;3.90;49.83;62397.31;6078706;23;20384;-76
2022/01/20 10:43:22;;;;;;;21.65;8.95;;;;;;;4.08;49.18;62415.81;6078071;23;20177;-76
2022/01/20 10:45:48;;;;;;;21.48;10.07;;;;;;;4.20;48.43;62430.69;6076994;23;20193;-75
2022/01/20 10:48:20;;;;;;;18.13;9.43;;;;;;;4.29;49.16;62442.47;6078186;23;20244;-75
2022/01/20 10:50:47;;;;;;;26.23;9.55;;;;;;;4.41;48.70;62452.81;6078525;23;20193;-76
2022/01/20 10:53:19;;;;;;;17.95;9.20;;;;;;;4.36;47.94;62447.16;6078305;23;20181;-76
2022/01/20 10:55:46;;;;;;;16.75;8.75;;;;;;;4.54;48.21;62466.19;6078579;23;20221;-77
2022/01/20 10:58:16;;;;;;;16.73;9.45;;;;;;;4.61;47.34;62475.94;6078842;23;20197;-77
2022/01/20 11:00:45;;;;;;;21.45;8.82;;;;;;;4.76;46.54;62485.31;6079677;23;20533;-79
2022/01/20 11:03:13;;;;;;;16.23;8.60;;;;;;;4.83;46.80;62492.50;6079364;23;20204;-77
2022/01/20 11:05:44;;;;;;;21.65;7.93;;;;;;;4.93;45.88;62507.84;6080020;23;20193;-79
2022/01/20 11:08:11;;;;;;;16.95;9.43;;;;;;;5.03;45.79;62513.09;6079408;23;20421;-78
2022/01/20 11:10:41;;;;;;;24.35;7.93;;;;;;;5.02;45.77;62512.06;6086405;23;20184;-78
2022/01/20 11:13:12;;;;;;;22.65;9.35;;;;;;;5.23;45.25;62536.72;6088198;23;20203;-77
2022/01/20 11:15:40;;;;;;;19.30;7.85;;;;;;;5.45;44.52;62559.38;6081332;23;20251;-78
2022/01/20 11:18:08;;;;;;;14.52;7.90;;;;;;;5.50;44.30;62558.97;6077088;23;20204;-76
2022/01/20 11:20:42;;;;;;;15.73;8.15;;;;;;;5.56;44.41;62565.16;6077449;23;20460;-77
2022/01/20 11:23:09;;;;;;;14.90;8.52;;;;;;;5.61;43.82;62570.81;6076173;23;20173;-77
2022/01/20 11:25:39;;;;;;;14.20;7.80;;;;;;;5.70;44.07;62585.16;6077318;23;20205;-78
2022/01/20 11:28:08;;;;;;;23.33;8.80;;;;;;;5.82;42.79;62597.53;6077171;23;20187;-78
2022/01/20 11:30:39;;;;;;;15.50;7.60;;;;;;;5.87;41.98;62602.16;6079128;23;20228;-77
2022/01/20 11:33:08;;;;;;;20.63;7.90;;;;;;;5.85;42.30;62597.56;6078378;23;20169;-78
2022/01/20 11:35:43;;;;;;;20.80;9.05;;;;;;;5.97;42.20;62611.97;6078980;23;20250;-76
2022/01/20 11:38:11;;;;;;;14.82;7.30;;;;;;;5.99;40.98;62616.56;6078424;23;20204;-77
2022/01/20 11:40:51;;;;;;;13.38;6.97;;;;;;;6.05;40.41;62620.19;6077865;23;20193;-77
2022/01/20 11:43:18;;;;;;;18.30;7.72;;;;;;;5.77;40.57;62591.84;6079735;23;20172;-77
2022/01/20 11:45:51;;;;;;;18.75;7.57;;;;;;;5.80;41.40;62599.97;6080638;23;20200;-78
2022/01/20 11:48:21;;;;;;;24.25;7.25;;;;;;;5.95;41.11;62612.44;6080467;23;20187;-77
2022/01/20 11:51:03;;;;;;;13.93;7.95;;;;;;;6.01;40.51;62618.59;6078700;23;20192;-78
2022/01/20 11:53:30;;;;;;;8.95;5.15;;;;;;;6.06;37.37;62624.28;6080452;23;20175;-77
2022/01/20 11:56:08;;;;;;;11.52;3.83;;;;;;;6.17;35.81;62635.09;6085153;23;20192;-77
2022/01/20 11:58:35;;;;;;;13.13;4.65;;;;;;;6.34;35.12;62650.63;6081910;23;20228;-77
2022/01/20 12:01:05;;;;;;;15.77;4.28;;;;;;;6.47;35.27;62666.03;6079940;23;20226;-77
2022/01/20 12:03:37;;;;;;;16.02;4.25;;;;;;;6.60;35.66;62679.97;6079362;23;20177;-77
2022/01/20 12:06:08;;;;;;;3.63;2.63;;;;;;;6.76;34.42;62691.41;6083296;23;20244;-77
2022/01/20 12:08:36;;;;;;;4.65;1.80;;;;;;;6.64;33.70;62679.00;6081834;23;20199;-78
2022/01/20 12:11:07;;;;;;;6.13;1.38;;;;;;;6.76;34.20;62690.88;6084398;23;20236;-77
2022/01/20 12:13:45;;;;;;;4.63;2.05;;;;;;;6.75;34.41;62692.88;6081814;23;20168;-77
2022/01/20 12:16:18;;;;;;;4.32;2.45;;;;;;;6.94;34.89;62717.56;6083840;23;20585;-78
2022/01/20 12:18:50;;;;;;;1.63;1.33;;;;;;;6.78;34.53;62693.44;6080208;23;20169;-77